Aviation Digital Data Service (ADDS)

Output produced by METARs form (0643 UTC 03 December 2016)
found at http://aviationweather.gov/adds/metars/
 
KLAX 030545Z 0306/0412 01008KT P6SM SKC WS010/04030KT 
     FM031700 VRB03KT P6SM SKC 
     FM032100 26012KT P6SM SKC 
     FM040400 VRB03KT P6SM SKC